createdAt,value
2023-05-24T00:01:27.801Z,19.90
2023-05-24T00:03:59.734Z,19.60
2023-05-24T00:06:30.297Z,19.50
2023-05-24T00:09:00.857Z,19.30
2023-05-24T00:11:31.015Z,19.20
2023-05-24T00:14:02.823Z,18.90
2023-05-24T00:16:33.053Z,18.70
2023-05-24T00:19:03.567Z,18.50
2023-05-24T00:21:36.118Z,18.40
2023-05-24T00:24:07.221Z,18.30
2023-05-24T00:26:37.749Z,18.10
2023-05-24T00:29:09.668Z,18.00
2023-05-24T00:31:39.892Z,17.70
2023-05-24T00:34:10.349Z,17.40
2023-05-24T00:36:40.739Z,17.10
2023-05-24T00:39:11.426Z,16.80
2023-05-24T00:41:41.989Z,16.70
2023-05-24T00:44:13.816Z,16.70
2023-05-24T00:46:44.623Z,16.60
2023-05-24T00:49:15.384Z,16.50
2023-05-24T00:51:45.871Z,16.30
2023-05-24T00:54:16.259Z,16.30
2023-05-24T00:56:47.250Z,16.30
2023-05-24T00:59:19.246Z,16.30
2023-05-24T01:01:49.506Z,16.20
2023-05-24T01:04:21.084Z,16.00
2023-05-24T01:07:02.999Z,15.90
2023-05-24T01:09:42.415Z,15.80
2023-05-24T01:12:29.586Z,15.60
2023-05-24T01:15:11.829Z,15.40
2023-05-24T01:17:49.653Z,15.20
2023-05-24T01:20:23.390Z,15.00
2023-05-24T01:23:20.438Z,14.80
2023-05-24T01:26:08.264Z,14.80
2023-05-24T01:28:42.008Z,14.60
2023-05-24T01:31:14.000Z,14.60
2023-05-24T01:33:45.635Z,14.50
2023-05-24T01:36:15.916Z,14.30
2023-05-24T01:38:47.320Z,14.30
2023-05-24T01:41:27.432Z,14.20
2023-05-24T01:44:06.177Z,14.00
2023-05-24T01:46:39.755Z,13.90
2023-05-24T01:49:19.444Z,13.80
2023-05-24T01:51:56.506Z,13.70
2023-05-24T01:54:28.965Z,13.60
2023-05-24T01:57:02.104Z,13.60
2023-05-24T01:59:35.762Z,13.50
2023-05-24T02:02:06.718Z,13.40
2023-05-24T02:04:37.510Z,13.40
2023-05-24T02:07:08.011Z,13.40
2023-05-24T02:09:38.221Z,13.50
2023-05-24T02:12:09.642Z,13.60
2023-05-24T02:14:43.772Z,13.80
2023-05-24T02:17:14.188Z,13.90
2023-05-24T02:19:44.463Z,13.90
2023-05-24T02:22:14.930Z,13.80
2023-05-24T02:24:45.379Z,13.80
2023-05-24T02:27:15.782Z,13.60
2023-05-24T02:29:48.474Z,13.50
2023-05-24T02:32:19.016Z,13.30
2023-05-24T02:34:49.326Z,13.20
2023-05-24T02:37:21.403Z,13.00
2023-05-24T02:39:51.718Z,12.90
2023-05-24T02:42:22.011Z,12.80
2023-05-24T02:44:53.852Z,12.80
2023-05-24T02:47:24.150Z,12.70
2023-05-24T02:49:54.616Z,12.90
2023-05-24T02:52:25.070Z,13.00
2023-05-24T02:54:55.878Z,13.10
2023-05-24T02:57:26.251Z,13.30
2023-05-24T02:59:58.773Z,13.50
2023-05-24T03:02:30.022Z,13.80
2023-05-24T03:05:00.312Z,13.90
2023-05-24T03:07:30.565Z,14.10
2023-05-24T03:10:00.774Z,14.20
2023-05-24T03:12:31.030Z,14.20
2023-05-24T03:15:03.058Z,14.20
2023-05-24T03:17:33.342Z,14.20
2023-05-24T03:20:03.689Z,14.20
2023-05-24T03:22:34.006Z,14.20
2023-05-24T03:25:04.199Z,14.10
2023-05-24T03:27:34.514Z,14.00
2023-05-24T03:30:07.409Z,14.00
2023-05-24T03:32:37.766Z,14.10
2023-05-24T03:35:08.570Z,14.10
2023-05-24T03:37:39.320Z,14.20
2023-05-24T03:40:10.836Z,14.30
2023-05-24T03:42:42.010Z,14.30
2023-05-24T03:45:19.399Z,14.40
2023-05-24T03:47:54.592Z,14.30
2023-05-24T03:50:24.910Z,14.30
2023-05-24T03:52:55.200Z,14.30
2023-05-24T03:55:25.351Z,14.20
2023-05-24T03:57:55.643Z,14.20
2023-05-24T04:00:27.497Z,14.20
2023-05-24T04:02:58.299Z,14.20
2023-05-24T04:05:30.476Z,14.30
2023-05-24T04:08:00.846Z,14.20
2023-05-24T04:10:31.025Z,14.30
2023-05-24T04:13:01.494Z,14.30
2023-05-24T04:15:33.814Z,14.30
2023-05-24T04:18:04.184Z,14.10
2023-05-24T04:20:34.640Z,14.10
2023-05-24T04:23:05.047Z,14.00
2023-05-24T04:25:35.866Z,14.00
2023-05-24T04:28:06.856Z,13.90
2023-05-24T04:30:39.151Z,13.90
2023-05-24T04:33:09.519Z,13.80
2023-05-24T04:35:41.442Z,13.70
2023-05-24T04:38:13.416Z,13.60
2023-05-24T04:40:43.880Z,13.50
2023-05-24T04:43:15.280Z,13.50
2023-05-24T04:45:47.249Z,13.40
2023-05-24T04:48:17.503Z,13.30
2023-05-24T04:50:48.444Z,13.20
2023-05-24T04:53:18.649Z,13.10
2023-05-24T04:55:49.301Z,13.00
2023-05-24T04:58:20.230Z,13.10
2023-05-24T05:00:52.086Z,13.20
2023-05-24T05:03:22.432Z,13.20
2023-05-24T05:05:52.776Z,13.10
2023-05-24T05:08:22.987Z,13.10
2023-05-24T05:10:53.228Z,13.00
2023-05-24T05:13:23.946Z,12.90
2023-05-24T05:15:55.735Z,12.80
2023-05-24T05:18:26.028Z,12.70
2023-05-24T05:20:56.331Z,12.70
2023-05-24T05:23:26.545Z,12.70
2023-05-24T05:25:56.814Z,12.80
2023-05-24T05:28:27.102Z,12.80
2023-05-24T05:30:59.450Z,12.80
2023-05-24T05:33:29.851Z,12.90
2023-05-24T05:36:00.253Z,13.00
2023-05-24T05:38:30.794Z,13.00
2023-05-24T05:41:00.948Z,13.00
2023-05-24T05:43:31.248Z,13.00
2023-05-24T05:46:03.264Z,13.00
2023-05-24T05:48:33.579Z,13.00
2023-05-24T05:51:03.736Z,13.00
2023-05-24T05:53:36.057Z,13.00
2023-05-24T05:56:06.320Z,13.00
2023-05-24T05:58:36.633Z,12.90
2023-05-24T06:01:08.519Z,12.90
2023-05-24T06:03:39.187Z,13.00
2023-05-24T06:06:09.998Z,13.00
2023-05-24T06:08:41.575Z,13.10
2023-05-24T06:11:11.807Z,13.20
2023-05-24T06:13:42.471Z,13.30
2023-05-24T06:16:51.973Z,13.40
2023-05-24T06:19:22.475Z,13.50
2023-05-24T06:21:52.880Z,13.40
2023-05-24T06:24:23.182Z,13.40
2023-05-24T06:26:54.472Z,13.50
2023-05-24T06:29:25.954Z,13.60
2023-05-24T06:31:57.860Z,13.60
2023-05-24T06:34:28.120Z,13.60
2023-05-24T06:36:58.840Z,13.70
2023-05-24T06:39:29.134Z,13.80
2023-05-24T06:41:59.363Z,13.80
2023-05-24T06:44:34.977Z,13.70
2023-05-24T06:47:08.074Z,13.60
2023-05-24T06:49:38.801Z,13.50
2023-05-24T06:52:09.906Z,13.60
2023-05-24T06:54:40.351Z,13.50
2023-05-24T06:57:11.022Z,13.60
2023-05-24T06:59:41.338Z,13.70
2023-05-24T07:02:13.378Z,13.80
2023-05-24T07:04:43.681Z,13.90
2023-05-24T07:07:14.393Z,13.90
2023-05-24T07:09:45.089Z,14.00
2023-05-24T07:12:15.583Z,14.00
2023-05-24T07:14:46.757Z,13.90
2023-05-24T07:17:18.844Z,13.90
2023-05-24T07:19:49.215Z,13.70
2023-05-24T07:22:19.469Z,13.70
2023-05-24T07:24:49.886Z,13.60
2023-05-24T07:27:20.441Z,13.70
2023-05-24T07:29:50.955Z,13.60
2023-05-24T07:32:22.886Z,13.60
2023-05-24T07:34:53.305Z,13.60
2023-05-24T07:37:24.750Z,13.50
2023-05-24T07:39:55.308Z,13.40
2023-05-24T07:42:25.716Z,13.30
2023-05-24T07:44:56.152Z,13.20
2023-05-24T07:47:28.446Z,13.00
2023-05-24T07:49:58.728Z,12.90
2023-05-24T07:52:29.391Z,12.80
2023-05-24T07:54:59.660Z,12.90
2023-05-24T07:57:30.076Z,12.90
2023-05-24T08:00:00.464Z,12.90
2023-05-24T08:02:32.773Z,13.00
2023-05-24T08:05:03.183Z,13.10
2023-05-24T08:07:33.347Z,13.10
2023-05-24T08:10:03.614Z,13.30
2023-05-24T08:12:33.798Z,13.40
2023-05-24T08:15:04.518Z,13.40
2023-05-24T08:17:36.749Z,13.50
2023-05-24T08:20:09.757Z,13.60
2023-05-24T08:22:40.247Z,13.70
2023-05-24T08:25:11.584Z,13.80
2023-05-24T08:27:41.870Z,13.80
2023-05-24T08:30:14.202Z,13.80
2023-05-24T08:32:46.306Z,13.80
2023-05-24T08:35:20.858Z,13.70
2023-05-24T08:37:52.247Z,13.60
2023-05-24T08:40:24.657Z,13.70
2023-05-24T08:42:56.138Z,13.60
2023-05-24T08:45:28.591Z,13.60
2023-05-24T08:48:01.559Z,13.60
2023-05-24T08:50:32.613Z,13.60
2023-05-24T08:53:04.127Z,13.50
2023-05-24T08:55:34.548Z,13.50
2023-05-24T08:58:05.082Z,13.40
2023-05-24T09:00:35.346Z,13.30
2023-05-24T09:03:08.798Z,13.30
2023-05-24T09:05:40.661Z,13.20
2023-05-24T09:08:11.975Z,13.10
2023-05-24T09:10:53.867Z,13.10
2023-05-24T09:13:26.830Z,13.10
2023-05-24T09:15:57.825Z,13.10
2023-05-24T09:18:30.379Z,13.00
2023-05-24T09:21:00.663Z,12.90
2023-05-24T09:23:31.102Z,12.90
2023-05-24T09:26:09.192Z,12.80
2023-05-24T09:28:42.367Z,12.70
2023-05-24T09:31:13.070Z,12.60
2023-05-24T09:33:45.063Z,12.50
2023-05-24T09:36:19.671Z,12.40
2023-05-24T09:38:50.713Z,12.20
2023-05-24T09:41:22.825Z,12.20
2023-05-24T09:43:53.228Z,12.20
2023-05-24T09:46:24.195Z,12.20
2023-05-24T09:49:04.489Z,12.20
2023-05-24T09:51:35.133Z,12.20
2023-05-24T09:54:05.927Z,12.10
2023-05-24T09:56:37.480Z,12.10
2023-05-24T09:59:11.398Z,12.10
2023-05-24T10:01:41.803Z,12.10
2023-05-24T10:04:14.894Z,12.20
2023-05-24T10:06:46.589Z,12.20
2023-05-24T10:09:18.890Z,12.10
2023-05-24T10:11:49.170Z,12.10
2023-05-24T10:14:19.816Z,12.10
2023-05-24T10:16:50.552Z,12.20
2023-05-24T10:19:22.445Z,12.30
2023-05-24T10:21:53.385Z,12.30
2023-05-24T10:24:27.029Z,12.30
2023-05-24T10:26:58.303Z,12.40
2023-05-24T10:29:37.508Z,12.50
2023-05-24T10:32:08.911Z,12.60
2023-05-24T10:34:41.361Z,12.70
2023-05-24T10:37:11.869Z,12.80
2023-05-24T10:39:43.982Z,12.80
2023-05-24T10:42:15.851Z,12.80
2023-05-24T10:44:46.125Z,12.90
2023-05-24T10:47:17.862Z,12.90
2023-05-24T10:49:58.543Z,12.90
2023-05-24T10:52:37.705Z,13.00
2023-05-24T10:55:10.166Z,13.00
2023-05-24T10:57:41.747Z,13.00
2023-05-24T11:00:47.654Z,12.90
2023-05-24T11:03:24.392Z,12.70
2023-05-24T11:05:57.988Z,12.60
2023-05-24T11:08:32.546Z,12.50
2023-05-24T11:13:44.774Z,12.20
2023-05-24T11:16:40.761Z,12.10
2023-05-24T11:19:21.997Z,12.00
2023-05-24T11:21:59.336Z,12.00
2023-05-24T11:24:30.511Z,11.90
2023-05-24T11:27:02.914Z,11.90
2023-05-24T11:29:34.363Z,11.80
2023-05-24T11:32:06.400Z,11.90
2023-05-24T11:34:37.434Z,11.80
2023-05-24T11:37:10.049Z,11.90
2023-05-24T11:39:41.045Z,11.90
2023-05-24T11:42:12.040Z,11.80
2023-05-24T11:44:42.619Z,11.80
2023-05-24T11:47:12.957Z,11.80
2023-05-24T11:49:43.311Z,11.80
2023-05-24T11:52:15.558Z,11.80
2023-05-24T11:54:45.986Z,11.80
2023-05-24T11:57:16.388Z,11.80
2023-05-24T11:59:46.789Z,11.80
2023-05-24T12:02:17.036Z,11.80
2023-05-24T12:04:47.643Z,11.80
2023-05-24T12:07:19.617Z,11.80
2023-05-24T12:09:49.919Z,11.80
2023-05-24T12:12:26.594Z,11.80
2023-05-24T12:15:00.992Z,11.80
2023-05-24T12:17:31.488Z,11.90
2023-05-24T12:20:05.368Z,11.90
2023-05-24T12:22:37.145Z,11.90
2023-05-24T12:25:08.016Z,11.90
2023-05-24T12:27:38.256Z,11.90
2023-05-24T12:30:19.426Z,11.90
2023-05-24T12:32:50.425Z,12.00
2023-05-24T12:35:21.352Z,12.00
2023-05-24T12:38:01.080Z,12.00
2023-05-24T12:40:35.291Z,12.00
2023-05-24T12:43:06.956Z,12.00
2023-05-24T12:45:37.932Z,12.00
2023-05-24T12:48:09.309Z,12.10
2023-05-24T12:50:39.753Z,12.10
2023-05-24T12:53:12.373Z,12.10
2023-05-24T12:55:43.528Z,12.10
2023-05-24T12:58:16.965Z,12.20
2023-05-24T13:00:50.725Z,12.20
2023-05-24T13:03:21.366Z,12.20
2023-05-24T13:05:51.909Z,12.20
2023-05-24T13:08:23.979Z,12.30
2023-05-24T13:10:54.609Z,12.30
2023-05-24T13:13:25.041Z,12.30
2023-05-24T13:15:56.203Z,12.30
2023-05-24T13:18:26.883Z,12.30
2023-05-24T13:20:58.358Z,12.20
2023-05-24T13:23:30.663Z,12.20
2023-05-24T13:26:01.003Z,12.20
2023-05-24T13:28:32.560Z,12.20
2023-05-24T13:31:02.995Z,12.20
2023-05-24T13:33:34.626Z,12.20
2023-05-24T13:36:04.869Z,12.20
2023-05-24T13:38:37.026Z,12.20
2023-05-24T13:41:07.347Z,12.00
2023-05-24T13:43:37.597Z,12.00
2023-05-24T13:46:10.199Z,11.90
2023-05-24T13:48:41.245Z,11.80
2023-05-24T13:51:11.591Z,11.60
2023-05-24T13:53:43.454Z,11.60
2023-05-24T13:56:13.789Z,11.50
2023-05-24T13:58:44.738Z,11.50
2023-05-24T14:01:15.030Z,11.40
2023-05-24T14:03:45.466Z,11.40
2023-05-24T14:06:16.059Z,11.40
2023-05-24T14:08:47.880Z,11.40
2023-05-24T14:11:18.353Z,11.30
2023-05-24T14:16:22.204Z,11.30
2023-05-24T14:18:52.848Z,11.20
2023-05-24T14:21:24.089Z,11.10
2023-05-24T14:23:55.951Z,11.10
2023-05-24T14:26:26.276Z,11.00
2023-05-24T14:28:57.070Z,10.90
2023-05-24T14:31:27.807Z,10.80
2023-05-24T14:33:58.212Z,10.80
2023-05-24T14:36:28.416Z,10.70
2023-05-24T14:39:00.243Z,10.80
2023-05-24T14:41:30.858Z,10.80
2023-05-24T14:44:01.205Z,10.70
2023-05-24T14:46:31.607Z,10.50
2023-05-24T14:49:03.104Z,10.30
2023-05-24T14:51:33.418Z,10.10
2023-05-24T14:54:05.215Z,10.00
2023-05-24T14:56:37.561Z,9.80
2023-05-24T14:59:07.993Z,9.70
2023-05-24T15:01:38.883Z,9.60
2023-05-24T15:04:09.819Z,9.50
2023-05-24T15:06:40.714Z,9.50
2023-05-24T15:09:12.463Z,9.50
2023-05-24T15:11:42.673Z,9.50
2023-05-24T15:14:13.198Z,9.50
2023-05-24T15:16:44.045Z,9.50
2023-05-24T15:19:14.463Z,9.40
2023-05-24T15:21:44.749Z,9.30
2023-05-24T15:24:16.984Z,9.30
2023-05-24T15:26:47.972Z,9.20
2023-05-24T15:29:18.904Z,9.10
2023-05-24T15:31:49.948Z,9.10
2023-05-24T15:34:21.507Z,9.10
2023-05-24T15:36:53.927Z,9.00
2023-05-24T15:39:25.739Z,9.10
2023-05-24T15:41:56.265Z,8.90
2023-05-24T15:44:26.457Z,8.80
2023-05-24T15:46:56.880Z,8.70
2023-05-24T15:49:27.276Z,8.70
2023-05-24T15:52:04.321Z,8.60
2023-05-24T15:54:37.047Z,8.50
2023-05-24T15:57:08.368Z,8.30
2023-05-24T15:59:39.267Z,8.30
2023-05-24T16:02:10.175Z,8.20
2023-05-24T16:04:40.637Z,8.20
2023-05-24T16:07:11.076Z,8.20
2023-05-24T16:09:42.885Z,8.10
2023-05-24T16:12:13.635Z,8.10
2023-05-24T16:14:43.913Z,8.00
2023-05-24T16:17:15.750Z,7.90
2023-05-24T16:19:47.757Z,7.90
2023-05-24T16:22:18.321Z,8.00
2023-05-24T16:24:50.174Z,8.00
2023-05-24T16:27:20.537Z,8.10
2023-05-24T16:29:50.754Z,8.30
2023-05-24T16:32:21.056Z,8.30
2023-05-24T16:34:57.160Z,8.20
2023-05-24T16:37:27.784Z,8.40
2023-05-24T16:39:59.614Z,8.50
2023-05-24T16:42:29.861Z,8.70
2023-05-24T16:45:00.137Z,8.60
2023-05-24T16:47:30.435Z,8.70
2023-05-24T16:50:00.803Z,8.80
2023-05-24T16:52:31.067Z,8.90
2023-05-24T16:55:02.978Z,9.10
2023-05-24T16:57:35.608Z,9.30
2023-05-24T17:00:06.209Z,9.70
2023-05-24T17:02:37.530Z,10.10
2023-05-24T17:05:08.382Z,10.40
2023-05-24T17:07:38.969Z,10.90
2023-05-24T17:10:12.784Z,11.70
2023-05-24T17:12:43.868Z,12.00
2023-05-24T17:15:14.784Z,12.00
2023-05-24T17:17:45.056Z,11.70
2023-05-24T17:20:16.650Z,12.10
2023-05-24T17:22:47.000Z,13.10
2023-05-24T17:25:19.367Z,14.00
2023-05-24T17:27:49.717Z,13.80
2023-05-24T17:30:20.429Z,13.70
2023-05-24T17:32:50.745Z,13.70
2023-05-24T17:35:21.029Z,13.70
2023-05-24T17:37:51.255Z,13.80
2023-05-24T17:40:23.345Z,13.60
2023-05-24T17:42:53.558Z,13.30
2023-05-24T17:45:24.297Z,13.20
2023-05-24T17:47:54.702Z,13.10
2023-05-24T17:50:25.024Z,13.90
2023-05-24T17:52:55.233Z,14.80
2023-05-24T17:55:27.115Z,15.00
2023-05-24T17:57:57.374Z,15.10
2023-05-24T18:00:28.463Z,14.50
2023-05-24T18:02:58.755Z,14.90
2023-05-24T18:05:29.053Z,15.10
2023-05-24T18:07:59.317Z,15.30
2023-05-24T18:10:31.456Z,15.90
2023-05-24T18:13:01.844Z,16.00
2023-05-24T18:15:32.657Z,16.00
2023-05-24T18:18:03.077Z,16.30
2023-05-24T18:20:33.547Z,16.60
2023-05-24T18:23:04.258Z,16.50
2023-05-24T18:25:36.192Z,16.70
2023-05-24T18:28:06.450Z,16.90
2023-05-24T18:30:36.660Z,16.70
2023-05-24T18:33:08.458Z,16.00
2023-05-24T18:35:39.037Z,15.50
2023-05-24T18:38:09.539Z,15.10
2023-05-24T18:40:41.598Z,15.80
2023-05-24T18:43:11.882Z,15.70
2023-05-24T18:45:42.375Z,15.80
2023-05-24T18:48:12.822Z,15.60
2023-05-24T18:50:43.051Z,15.50
2023-05-24T18:53:13.291Z,15.80
2023-05-24T18:55:45.578Z,16.40
2023-05-24T18:58:16.650Z,16.80
2023-05-24T19:00:46.858Z,16.90
2023-05-24T19:03:17.383Z,16.90
2023-05-24T19:05:47.985Z,17.00
2023-05-24T19:08:19.242Z,16.70
2023-05-24T19:10:51.188Z,16.50
2023-05-24T19:13:21.471Z,16.80
2023-05-24T19:15:52.178Z,17.10
2023-05-24T19:18:22.470Z,17.20
2023-05-24T19:20:52.969Z,17.30
2023-05-24T19:23:23.370Z,17.40
2023-05-24T19:25:55.315Z,17.40
2023-05-24T19:28:25.786Z,17.30
2023-05-24T19:30:55.946Z,17.30
2023-05-24T19:33:26.264Z,16.90
2023-05-24T19:35:56.433Z,16.90
2023-05-24T19:38:26.645Z,17.30
2023-05-24T19:40:59.262Z,17.50
2023-05-24T19:43:29.476Z,17.40
2023-05-24T19:45:59.758Z,17.30
2023-05-24T19:48:30.234Z,17.90
2023-05-24T19:51:00.400Z,18.00
2023-05-24T19:53:31.140Z,17.70
2023-05-24T19:56:03.118Z,17.40
2023-05-24T19:58:33.334Z,17.00
2023-05-24T20:01:03.614Z,17.30
2023-05-24T20:03:34.298Z,17.40
2023-05-24T20:06:04.607Z,17.60
2023-05-24T20:08:34.938Z,17.80
2023-05-24T20:11:07.083Z,17.70
2023-05-24T20:13:37.364Z,17.70
2023-05-24T20:16:08.443Z,17.80
2023-05-24T20:18:38.973Z,18.00
2023-05-24T20:21:09.266Z,17.80
2023-05-24T20:23:39.891Z,18.10
2023-05-24T20:26:11.894Z,18.20
2023-05-24T20:28:42.288Z,18.00
2023-05-24T20:31:12.601Z,18.00
2023-05-24T20:33:42.959Z,18.20
2023-05-24T20:36:15.446Z,18.00
2023-05-24T20:38:46.225Z,17.60
2023-05-24T20:41:18.388Z,17.40
2023-05-24T20:43:49.276Z,17.20
2023-05-24T20:46:19.592Z,17.00
2023-05-24T20:48:49.976Z,17.20
2023-05-24T20:51:20.904Z,17.30
2023-05-24T20:53:53.202Z,17.50
2023-05-24T20:56:26.895Z,17.40
2023-05-24T20:59:00.497Z,17.80
2023-05-24T21:01:31.075Z,17.60
2023-05-24T21:04:01.352Z,17.50
2023-05-24T21:06:34.087Z,17.60
2023-05-24T21:09:05.110Z,17.50
2023-05-24T21:11:36.913Z,17.30
2023-05-24T21:14:07.155Z,17.10
2023-05-24T21:16:37.562Z,17.10
2023-05-24T21:19:07.889Z,17.20
2023-05-24T21:21:38.298Z,17.10
2023-05-24T21:24:09.088Z,17.00
2023-05-24T21:26:42.114Z,17.00
2023-05-24T21:29:14.581Z,17.30
2023-05-24T21:31:44.822Z,17.50
2023-05-24T21:34:15.320Z,17.40
2023-05-24T21:36:45.768Z,17.80
2023-05-24T21:39:16.348Z,17.80
2023-05-24T21:41:49.134Z,17.80
2023-05-24T21:44:19.458Z,18.10
2023-05-24T21:46:49.942Z,18.30
2023-05-24T21:49:20.955Z,18.40
2023-05-24T21:51:51.273Z,18.40
2023-05-24T21:54:22.104Z,18.00
2023-05-24T21:56:54.151Z,17.30
2023-05-24T21:59:24.505Z,17.00
2023-05-24T22:01:54.875Z,17.00
2023-05-24T22:04:25.083Z,17.10
2023-05-24T22:06:55.336Z,16.90
2023-05-24T22:09:25.912Z,16.90
2023-05-24T22:11:57.823Z,16.90
2023-05-24T22:14:28.861Z,16.70
2023-05-24T22:16:59.057Z,16.40
2023-05-24T22:19:39.421Z,16.60
2023-05-24T22:22:11.031Z,16.50
2023-05-24T22:24:43.196Z,16.40
2023-05-24T22:27:17.576Z,16.40
2023-05-24T22:29:47.937Z,16.60
2023-05-24T22:32:18.549Z,16.50
2023-05-24T22:34:49.041Z,16.50
2023-05-24T22:37:19.596Z,16.50
2023-05-24T22:39:49.942Z,16.60
2023-05-24T22:42:22.563Z,16.50
2023-05-24T22:44:52.772Z,16.30
2023-05-24T22:47:24.553Z,16.00
2023-05-24T22:49:55.650Z,15.60
2023-05-24T22:52:27.126Z,15.50
2023-05-24T22:54:57.564Z,15.30
2023-05-24T22:57:29.603Z,15.30
2023-05-24T22:59:59.969Z,15.30
2023-05-24T23:02:30.580Z,15.30
2023-05-24T23:05:01.034Z,15.40
2023-05-24T23:07:31.706Z,15.50
2023-05-24T23:10:02.229Z,15.50
2023-05-24T23:12:34.460Z,15.30
2023-05-24T23:15:05.402Z,15.10
2023-05-24T23:17:35.623Z,14.60
2023-05-24T23:20:10.777Z,14.30
2023-05-24T23:22:41.630Z,14.30
2023-05-24T23:25:13.049Z,14.10
2023-05-24T23:27:45.177Z,14.00
2023-05-24T23:30:15.949Z,13.90
2023-05-24T23:32:46.307Z,13.90
2023-05-24T23:35:17.521Z,13.80
2023-05-24T23:37:47.730Z,13.50
2023-05-24T23:40:18.013Z,13.40
2023-05-24T23:42:49.927Z,13.30
2023-05-24T23:45:23.279Z,13.20
2023-05-24T23:47:55.850Z,13.10
2023-05-24T23:50:26.521Z,12.90
2023-05-24T23:52:57.539Z,12.70
2023-05-24T23:55:28.262Z,12.60
2023-05-24T23:58:01.018Z,12.50
